createdAt,value
2019-01-31T11:34:50.135Z,131068
2019-01-31T11:36:50.105Z,131068
2019-01-31T11:38:50.732Z,131068
2019-01-31T11:40:50.501Z,131068
2019-01-31T11:42:49.892Z,131068
2019-01-31T11:44:50.034Z,120698
2019-01-31T11:46:49.942Z,131068
2019-01-31T11:48:50.437Z,131068
2019-01-31T11:50:49.766Z,120587
2019-01-31T11:52:50.267Z,131068
2019-01-31T11:54:50.614Z,131068
2019-01-31T11:56:50.493Z,38925
2019-01-31T11:58:50.701Z,1988
2019-01-31T12:00:53.454Z,26
2019-01-31T12:02:55.638Z,21
2019-01-31T12:04:50.645Z,32
2019-01-31T12:06:50.393Z,28
2019-01-31T12:08:50.848Z,22
2019-01-31T12:10:50.178Z,26
2019-01-31T12:12:50.783Z,30
2019-01-31T12:14:50.190Z,26
2019-01-31T12:16:49.909Z,34
2019-01-31T12:18:50.287Z,28
2019-01-31T12:20:50.676Z,20
2019-01-31T12:22:50.143Z,37
2019-01-31T12:24:50.578Z,35
2019-01-31T12:26:50.512Z,30
2019-01-31T12:28:51.463Z,27
2019-01-31T12:30:50.246Z,32
2019-01-31T12:32:49.902Z,30
2019-01-31T12:34:50.024Z,30
2019-01-31T12:36:49.882Z,35
2019-01-31T12:38:50.281Z,33
2019-01-31T12:40:50.081Z,33
2019-01-31T12:42:50.708Z,39
2019-01-31T12:44:50.116Z,32
2019-01-31T12:46:49.973Z,31
2019-01-31T12:48:50.460Z,25
2019-01-31T12:50:50.605Z,25
2019-01-31T12:52:49.716Z,18
2019-01-31T12:54:49.906Z,27
2019-01-31T12:56:50.287Z,26
2019-01-31T12:58:50.572Z,22
2019-01-31T13:00:50.676Z,74
2019-01-31T13:02:49.835Z,83
2019-01-31T13:04:50.266Z,78
2019-01-31T13:06:50.473Z,27
2019-01-31T13:08:49.705Z,79
2019-01-31T13:10:49.817Z,85
2019-01-31T13:12:49.923Z,36
2019-01-31T13:14:50.034Z,25
2019-01-31T13:16:50.280Z,22
2019-01-31T13:18:50.558Z,29
2019-01-31T13:20:49.771Z,26
2019-01-31T13:22:49.846Z,37
2019-01-31T13:24:49.957Z,32
2019-01-31T13:26:50.364Z,32
2019-01-31T13:28:50.548Z,28
2019-01-31T13:30:49.730Z,31
2019-01-31T13:32:49.848Z,22
2019-01-31T13:34:50.220Z,28
2019-01-31T13:36:50.507Z,43
2019-01-31T13:38:50.666Z,43
2019-01-31T13:40:49.762Z,43
2019-01-31T14:08:50.224Z,33
2019-01-31T14:10:50.366Z,22
2019-01-31T14:12:50.523Z,33
2019-01-31T14:14:50.636Z,29
2019-01-31T14:16:49.884Z,43
2019-01-31T14:18:49.989Z,43
2019-01-31T14:20:50.536Z,36
2019-01-31T14:22:50.643Z,29
2019-01-31T14:24:49.746Z,26
2019-01-31T14:26:50.221Z,81
2019-01-31T14:28:50.366Z,87
2019-01-31T14:30:50.487Z,24
2019-01-31T14:32:50.584Z,29
2019-01-31T14:34:50.043Z,37
2019-01-31T14:36:50.361Z,27
2019-01-31T14:38:50.508Z,35
2019-01-31T14:40:50.648Z,24
2019-01-31T14:42:49.856Z,57
2019-01-31T14:44:50.006Z,57
2019-01-31T14:46:50.287Z,57
